createdAt,value
2023-02-06T00:05:04.009Z,68.99
2023-02-06T00:10:08.529Z,68.68
2023-02-06T00:15:11.950Z,68.46
2023-02-06T00:20:16.740Z,68.92
2023-02-06T00:25:20.219Z,68.95
2023-02-06T00:30:23.818Z,68.63
2023-02-06T00:35:28.632Z,68.79
2023-02-06T00:40:32.018Z,68.75
2023-02-06T00:45:36.677Z,68.57
2023-02-06T00:50:41.663Z,68.42
2023-02-06T00:55:45.821Z,68.82
2023-02-06T01:00:49.213Z,68.33
2023-02-06T01:05:55.202Z,68.77
2023-02-06T01:10:58.589Z,68.79
2023-02-06T01:16:02.839Z,68.74
2023-02-06T01:21:10.766Z,68.92
2023-02-06T01:26:16.472Z,69.07
2023-02-06T01:31:21.559Z,69.00
2023-02-06T01:36:30.576Z,69.06
2023-02-06T01:41:34.954Z,69.02
2023-02-06T01:46:39.057Z,68.88
2023-02-06T01:51:44.497Z,69.25
2023-02-06T01:56:53.659Z,69.39
2023-02-06T02:01:57.361Z,69.49
2023-02-06T02:07:11.862Z,69.11
2023-02-06T02:12:15.728Z,69.19
2023-02-06T02:17:34.029Z,68.91
2023-02-06T02:23:09.527Z,68.71
2023-02-06T02:28:43.329Z,68.78
2023-02-06T02:34:23.544Z,68.58
2023-02-06T02:39:37.473Z,69.17
2023-02-06T02:44:47.621Z,69.00
2023-02-06T02:49:51.557Z,68.96
2023-02-06T02:54:56.416Z,68.96
2023-02-06T03:00:01.682Z,69.04
2023-02-06T03:05:09.658Z,68.91
2023-02-06T03:10:28.567Z,68.94
2023-02-06T03:15:42.732Z,69.20
2023-02-06T03:20:48.818Z,69.13
2023-02-06T03:25:57.395Z,69.08
2023-02-06T03:31:04.864Z,69.30
2023-02-06T03:36:11.145Z,69.24
2023-02-06T03:41:18.583Z,69.12
2023-02-06T03:46:24.125Z,69.21
2023-02-06T03:51:32.067Z,68.98
2023-02-06T03:56:44.282Z,69.26
2023-02-06T04:01:52.153Z,69.46
2023-02-06T04:06:56.279Z,69.12
2023-02-06T04:12:01.090Z,69.03
2023-02-06T04:17:04.725Z,68.97
2023-02-06T04:22:13.929Z,69.13
2023-02-06T04:27:18.730Z,69.10
2023-02-06T04:32:22.211Z,68.97
2023-02-06T04:37:25.617Z,69.13
2023-02-06T04:42:30.360Z,69.10
2023-02-06T04:47:33.815Z,68.50
2023-02-06T04:52:37.495Z,69.35
2023-02-06T04:57:42.466Z,69.10
2023-02-06T05:02:46.022Z,69.17
2023-02-06T05:07:49.367Z,69.28
2023-02-06T05:12:55.989Z,69.33
2023-02-06T05:17:59.525Z,69.19
2023-02-06T05:23:03.249Z,69.45
2023-02-06T05:28:08.167Z,69.38
2023-02-06T05:33:12.099Z,68.73
2023-02-06T05:38:15.583Z,68.92
2023-02-06T05:43:20.350Z,68.97
2023-02-06T05:48:23.791Z,69.16
2023-02-06T05:53:27.289Z,68.71
2023-02-06T05:58:32.399Z,68.58
2023-02-06T06:03:38.159Z,68.64
2023-02-06T06:08:41.719Z,68.83
2023-02-06T06:13:46.485Z,68.55
2023-02-06T06:18:49.989Z,68.68
2023-02-06T06:23:53.732Z,68.57
2023-02-06T06:28:58.873Z,68.34
2023-02-06T06:34:02.433Z,68.45
2023-02-06T06:39:05.920Z,68.58
2023-02-06T06:44:10.797Z,68.36
2023-02-06T06:49:14.385Z,68.88
2023-02-06T06:54:19.620Z,68.52
2023-02-06T06:59:24.491Z,68.39
2023-02-06T07:04:31.107Z,68.68
2023-02-06T07:09:34.497Z,68.70
2023-02-06T07:14:40.890Z,69.02
2023-02-06T07:19:48.023Z,68.45
2023-02-06T07:24:53.478Z,68.19
2023-02-06T07:30:01.536Z,68.12
2023-02-06T07:35:06.180Z,68.00
2023-02-06T07:40:10.718Z,67.78
2023-02-06T07:45:16.000Z,67.27
2023-02-06T07:50:19.553Z,67.62
2023-02-06T07:55:23.141Z,67.64
2023-02-06T08:00:27.960Z,66.84
2023-02-06T08:05:32.214Z,66.24
2023-02-06T08:10:35.730Z,65.75
2023-02-06T08:15:40.600Z,66.03
2023-02-06T08:20:43.939Z,64.88
2023-02-06T08:25:47.415Z,64.84
2023-02-06T08:30:52.340Z,64.76
2023-02-06T08:35:55.894Z,64.35
2023-02-06T08:40:59.638Z,63.12
2023-02-06T08:46:06.567Z,62.46
2023-02-06T08:51:11.226Z,62.99
2023-02-06T08:56:14.898Z,61.84
2023-02-06T09:01:19.716Z,62.39
2023-02-06T09:06:23.404Z,62.38
2023-02-06T09:11:27.831Z,61.99
2023-02-06T09:16:33.642Z,61.79
2023-02-06T09:21:37.292Z,61.49
2023-02-06T09:26:58.030Z,61.32
2023-02-06T09:32:04.342Z,61.84
2023-02-06T09:37:07.885Z,61.76
2023-02-06T09:42:18.779Z,61.23
2023-02-06T09:47:27.341Z,61.85
2023-02-06T09:52:52.265Z,62.60
2023-02-06T09:58:03.408Z,61.49
2023-02-06T10:03:23.807Z,62.05
2023-02-06T10:08:32.347Z,63.59
2023-02-06T10:13:43.150Z,60.68
2023-02-06T10:18:53.974Z,60.31
2023-02-06T10:24:03.758Z,60.79
2023-02-06T10:29:12.229Z,62.08
2023-02-06T10:34:31.121Z,61.74
2023-02-06T10:39:50.117Z,61.02
2023-02-06T10:45:18.396Z,61.08
2023-02-06T10:50:29.497Z,59.44
2023-02-06T10:55:41.475Z,58.49
2023-02-06T11:00:47.126Z,57.76
2023-02-06T11:05:52.617Z,57.65
2023-02-06T11:10:56.542Z,58.11
2023-02-06T11:16:03.701Z,58.85
2023-02-06T11:21:11.014Z,58.10
2023-02-06T11:26:17.786Z,57.60
2023-02-06T11:31:40.474Z,58.28
2023-02-06T11:36:45.868Z,58.33
2023-02-06T11:41:58.823Z,59.62
2023-02-06T11:47:21.103Z,60.19
2023-02-06T11:52:30.906Z,57.45
2023-02-06T11:57:35.250Z,55.64
2023-02-06T12:02:39.458Z,54.40
2023-02-06T12:07:50.878Z,54.91
2023-02-06T12:12:59.288Z,54.42
2023-02-06T12:18:06.994Z,56.07
2023-02-06T12:23:19.507Z,55.06
2023-02-06T12:28:28.929Z,54.43
2023-02-06T12:33:38.410Z,53.92
2023-02-06T12:38:48.564Z,54.95
2023-02-06T12:43:56.446Z,53.85
2023-02-06T12:49:07.718Z,55.07
2023-02-06T12:54:18.755Z,55.64
2023-02-06T12:59:57.609Z,55.40
2023-02-06T13:05:05.865Z,54.70
2023-02-06T13:10:20.154Z,55.89
2023-02-06T13:15:26.341Z,54.41
2023-02-06T13:20:31.868Z,56.42
2023-02-06T13:25:56.201Z,57.24
2023-02-06T13:31:02.372Z,55.45
2023-02-06T13:36:10.077Z,54.92
2023-02-06T13:41:37.385Z,57.13
2023-02-06T13:47:18.674Z,56.72
2023-02-06T13:52:34.215Z,54.75
2023-02-06T13:57:54.871Z,55.49
2023-02-06T14:03:07.523Z,55.49
2023-02-06T14:08:21.383Z,54.64
2023-02-06T14:13:41.802Z,55.58
2023-02-06T14:18:52.131Z,53.99
2023-02-06T14:24:16.439Z,56.63
2023-02-06T14:29:31.207Z,55.53
2023-02-06T14:34:47.106Z,56.17
2023-02-06T14:39:53.273Z,55.86
2023-02-06T14:45:02.076Z,56.04
2023-02-06T14:50:08.412Z,55.80
2023-02-06T14:55:31.510Z,55.91
2023-02-06T15:00:36.337Z,54.05
2023-02-06T15:05:39.989Z,54.33
2023-02-06T15:10:43.478Z,54.06
2023-02-06T15:15:56.794Z,55.37
2023-02-06T15:21:03.220Z,54.44
2023-02-06T15:26:16.261Z,55.21
2023-02-06T15:31:22.713Z,55.57
2023-02-06T15:36:32.134Z,55.04
2023-02-06T15:41:36.818Z,54.36
2023-02-06T15:46:42.560Z,55.45
2023-02-06T15:51:53.830Z,56.04
2023-02-06T15:57:02.905Z,55.45
2023-02-06T16:02:08.830Z,56.91
2023-02-06T16:07:18.022Z,56.42
2023-02-06T16:12:22.556Z,55.98
2023-02-06T16:17:33.298Z,56.03
2023-02-06T16:22:39.883Z,54.74
2023-02-06T16:27:45.526Z,55.40
2023-02-06T16:32:54.626Z,55.49
2023-02-06T16:37:58.740Z,54.18
2023-02-06T16:43:02.389Z,55.07
2023-02-06T16:48:12.473Z,55.89
2023-02-06T16:53:22.921Z,54.51
2023-02-06T16:58:28.529Z,54.83
2023-02-06T17:03:33.389Z,54.36
2023-02-06T17:08:39.906Z,54.34
2023-02-06T17:13:43.633Z,53.52
2023-02-06T17:18:49.398Z,54.21
2023-02-06T17:23:53.067Z,53.54
2023-02-06T17:28:56.583Z,53.58
2023-02-06T17:34:01.348Z,53.75
2023-02-06T17:39:04.900Z,53.80
2023-02-06T17:44:08.421Z,52.96
2023-02-06T17:49:14.185Z,54.61
2023-02-06T17:54:17.544Z,54.37
2023-02-06T17:59:21.065Z,54.94
2023-02-06T18:04:26.007Z,54.86
2023-02-06T18:09:29.591Z,54.91
2023-02-06T18:14:33.979Z,54.98
2023-02-06T18:19:42.304Z,54.99
2023-02-06T18:24:46.697Z,55.50
2023-02-06T18:29:54.968Z,54.40
2023-02-06T18:35:00.410Z,54.42
2023-02-06T18:40:04.768Z,54.85
2023-02-06T18:45:09.258Z,55.09
2023-02-06T18:50:14.315Z,54.65
2023-02-06T18:55:19.200Z,54.14
2023-02-06T19:00:24.651Z,54.58
2023-02-06T19:05:30.837Z,55.22
2023-02-06T19:10:34.536Z,54.47
2023-02-06T19:15:38.585Z,54.67
2023-02-06T19:20:44.020Z,55.80
2023-02-06T19:25:47.857Z,57.96
2023-02-06T19:30:51.439Z,59.38
2023-02-06T19:35:56.434Z,60.05
2023-02-06T19:41:06.467Z,60.43
2023-02-06T19:46:12.001Z,60.99
2023-02-06T19:51:19.242Z,61.16
2023-02-06T19:56:24.757Z,61.58
2023-02-06T20:01:30.264Z,61.96
2023-02-06T20:06:36.608Z,62.55
2023-02-06T20:11:40.277Z,62.27
2023-02-06T20:16:44.607Z,62.94
2023-02-06T20:21:51.611Z,62.91
2023-02-06T20:26:57.152Z,62.90
2023-02-06T20:32:01.974Z,63.03
2023-02-06T20:37:06.826Z,62.72
2023-02-06T20:42:10.341Z,62.71
2023-02-06T20:47:13.812Z,62.69
2023-02-06T20:52:19.195Z,62.27
2023-02-06T20:57:23.364Z,62.60
2023-02-06T21:02:28.224Z,62.40
2023-02-06T21:07:33.440Z,62.25
2023-02-06T21:12:36.979Z,62.05
2023-02-06T21:17:40.470Z,62.01
2023-02-06T21:29:04.048Z,61.42
2023-02-06T21:34:09.744Z,61.28
2023-02-06T21:39:18.187Z,61.50
2023-02-06T21:44:23.755Z,61.16
2023-02-06T21:49:27.311Z,61.40
2023-02-06T21:54:32.198Z,61.47
2023-02-06T21:59:37.989Z,61.69
2023-02-06T22:04:41.496Z,61.29
2023-02-06T22:09:46.457Z,61.65
2023-02-06T22:14:50.127Z,61.42
2023-02-06T22:19:54.226Z,61.87
2023-02-06T22:24:59.022Z,61.83
2023-02-06T22:30:03.801Z,61.85
2023-02-06T22:35:08.363Z,61.98
2023-02-06T22:40:13.555Z,61.92
2023-02-06T22:45:17.122Z,62.04
2023-02-06T22:50:20.725Z,61.99
2023-02-06T22:55:45.843Z,61.88
2023-02-06T23:00:49.572Z,61.84
2023-02-06T23:05:53.312Z,62.22
2023-02-06T23:11:00.104Z,61.79
2023-02-06T23:16:11.002Z,61.73
2023-02-06T23:21:15.562Z,61.94
2023-02-06T23:26:20.844Z,62.10
2023-02-06T23:31:24.717Z,62.11
2023-02-06T23:36:30.989Z,62.13
2023-02-06T23:41:36.084Z,61.59
2023-02-06T23:46:40.690Z,61.83
2023-02-06T23:51:44.123Z,61.40
2023-02-06T23:56:48.958Z,61.02
